• Join FlightAware (Why Join?)
  • Login
  • US Flag 
04:51AM EDT


 

Airport Tracker/Info


-or-


 

Live Flight TrackerFlight Track Log ✈ WIG8110 ✈ 10-May-2013 ✈ KPVD - KEWR

Flight Track Log - Related Links

Times and Time Zones

All times are in EDT time to prevent confusion due to time zone crossing. See the WIG8110 flight status page for this flight to view local times or setup timezone preferences in your user account.

Time Position Orientation Groundspeed Altitude Reporting Facility
EDT Latitude Longitude Course Direction KTS MPH feet Rate Location/Type
03:06AM 41.6946 -71.7494 246° West  Level FlightAware Approximate
03:08AM 41.7144 -71.4333 246° West 149 171 800  Level Boston Center
03:09AM 41.6981 -71.4669 237° Southwest 101 116 1,900 1,080 Climbing Boston Center
03:10AM 41.6942 -71.5003 261° West 101 116 3,000 1,200 Climbing Boston Center
03:11AM 41.6861 -71.5450 256° West 113 130 4,400 1,200 Climbing Boston Center
03:12AM 41.6781 -71.5814 254° West 113 130 5,500 840 Climbing Boston Center
03:13AM 41.6681 -71.6286 254° West 113 130 6,100 240 Climbing Boston Center
03:14AM 41.6622 -71.6842 262° West 136 157 6,000 -60 Descending Boston Center
03:15AM 41.6481 -71.7400 251° West 152 175 6,000  Level Boston Center
03:16AM 41.6378 -71.7983 257° West 158 182 6,000  Level Boston Center
03:17AM 41.6278 -71.8514 256° West 158 182 6,000  Level Boston Center
03:18AM 41.6175 -71.9042 255° West 158 182 6,000  Level Boston Center
03:19AM 41.6075 -71.9597 256° West 158 182 6,000  Level Boston Center
03:20AM 41.5972 -72.0181 257° West 163 188 6,000  Level Boston Center
03:21AM 41.5869 -72.0708 255° West 163 188 6,000  Level Boston Center
03:22AM 41.5767 -72.1294 257° West 163 188 6,000  Level Boston Center
03:23AM 41.5644 -72.1819 253° West 163 188 6,000  Level Boston Center
03:24AM 41.5542 -72.2375 256° West 163 188 6,000  Level Boston Center
03:24AM 41.5458 -72.2569 240° Southwest 157 181 6,000  Level Boston Center
03:25AM 41.5417 -72.2903 261° West 163 188 6,000  Level Boston Center
03:26AM 41.5292 -72.3514 255° West 163 188 6,000  Level Boston Center
03:27AM 41.5208 -72.4014 257° West 163 188 6,000  Level Boston Center
03:28AM 41.5064 -72.4622 252° West 163 188 6,000  Level Boston Center
03:30AM 41.4833 -72.5500 251° West 165 190 6,000  Level New York TRACON
03:31AM 41.4833 -72.6000 270° West 156 180 6,000  Level New York TRACON
03:32AM 41.4667 -72.6667 252° West 159 183 6,000  Level New York TRACON
03:33AM 41.4500 -72.7167 246° West 160 184 6,000  Level New York TRACON
03:34AM 41.4500 -72.7667 270° West 157 181 6,000  Level New York TRACON
03:35AM 41.4333 -72.8333 252° West 155 178 6,000  Level New York TRACON
03:36AM 41.4167 -72.8833 246° West 154 177 6,000  Level New York TRACON
03:37AM 41.4167 -72.9333 270° West 158 182 6,000  Level New York TRACON
03:38AM 41.4000 -73.0000 252° West 159 183 6,000  Level New York TRACON
03:39AM 41.3833 -73.0500 246° West 156 180 6,000  Level New York TRACON
03:40AM 41.3833 -73.1000 270° West 158 182 6,000  Level New York TRACON
03:41AM 41.3667 -73.1667 252° West 158 182 6,000  Level New York TRACON
03:42AM 41.3500 -73.2167 246° West 161 185 6,000  Level New York TRACON
03:43AM 41.3500 -73.2667 270° West 161 185 6,000  Level New York TRACON
03:44AM 41.3333 -73.3333 252° West 158 182 6,000  Level New York TRACON
03:45AM 41.3167 -73.3833 246° West 162 186 6,000 -120 Level New York TRACON
03:46AM 41.3000 -73.4500 252° West 162 186 5,800 -300 Descending New York TRACON
03:47AM 41.3000 -73.5000 270° West 168 193 5,400 -420 Descending New York TRACON
03:48AM 41.2833 -73.5667 252° West 175 201 5,000 -180 Descending New York TRACON
03:49AM 41.2667 -73.6333 252° West 166 191 5,100  Climbing New York TRACON
03:50AM 41.2667 -73.6833 270° West 166 191 5,100 -60 Level New York TRACON
03:51AM 41.2167 -73.7167 207° Southwest 172 198 5,000  Descending New York TRACON
03:52AM 41.1833 -73.7500 217° Southwest 167 192 5,100  Climbing New York TRACON
03:53AM 41.1500 -73.7833 217° Southwest 167 192 5,100  Level New York TRACON
03:54AM 41.1167 -73.8167 217° Southwest 166 191 5,100 -60 Level New York TRACON
03:55AM 41.0667 -73.8500 207° Southwest 162 186 5,000 -300 Descending New York TRACON
03:56AM 41.0333 -73.9000 229° Southwest 174 200 4,500 -540 Descending New York TRACON
03:57AM 41.0000 -73.9333 217° Southwest 175 201 4,000 -480 Descending New York TRACON
03:58AM 40.9500 -73.9667 207° Southwest 175 201 3,600 -480 Descending New York TRACON
03:59AM 40.9167 -74.0000 217° Southwest 173 199 3,100 -300 Descending New York TRACON
04:00AM 40.8833 -74.0500 229° Southwest 165 190 3,100  Level New York TRACON
04:01AM 40.8333 -74.0833 207° Southwest 165 190 3,100 -480 Level New York TRACON
04:02AM 40.8000 -74.1000 201° Southwest 164 189 2,200 -900 Descending New York TRACON
04:03AM 40.7667 -74.1333 217° Southwest 154 177 1,300 -840 Descending New York TRACON
04:04AM 40.7167 -74.1500 194° South 139 160 600 -720 Descending New York TRACON